createdAt,value
2018-11-04T00:01:47.029Z,40.77
2018-11-04T00:04:16.123Z,42.90
2018-11-04T00:06:45.253Z,39.40
2018-11-04T00:09:15.706Z,36.33
2018-11-04T00:11:45.298Z,35.37
2018-11-04T00:14:14.433Z,37.97
2018-11-04T00:16:43.596Z,38.97
2018-11-04T00:19:12.606Z,40.50
2018-11-04T00:21:41.646Z,39.60
2018-11-04T00:24:10.783Z,39.63
2018-11-04T00:26:39.842Z,37.20
2018-11-04T00:29:09.427Z,39.83
2018-11-04T00:31:38.621Z,40.40
2018-11-04T00:34:07.692Z,42.20
2018-11-04T00:36:36.856Z,42.13
2018-11-04T00:39:08.521Z,40.07
2018-11-04T00:41:37.659Z,42.90
2018-11-04T00:44:06.968Z,44.73
2018-11-04T00:46:36.046Z,43.37
2018-11-04T00:49:05.749Z,46.27
2018-11-04T00:51:34.767Z,49.03
2018-11-04T00:54:03.819Z,47.83
2018-11-04T00:56:32.851Z,42.00
2018-11-04T00:59:01.941Z,42.87
2018-11-04T01:01:31.061Z,41.80
2018-11-04T01:04:00.994Z,43.43
2018-11-04T01:06:30.059Z,40.33
2018-11-04T01:08:59.199Z,46.93
2018-11-04T01:11:28.229Z,38.60
2018-11-04T01:13:57.291Z,39.83
2018-11-04T01:16:26.334Z,40.33
2018-11-04T01:18:55.636Z,44.43
2018-11-04T01:21:24.714Z,45.17
2018-11-04T01:23:53.772Z,40.30
2018-11-04T01:26:22.832Z,36.43
2018-11-04T01:28:51.884Z,39.90
2018-11-04T01:31:21.000Z,39.90
2018-11-04T01:33:50.213Z,38.37
2018-11-04T01:36:19.309Z,44.57
2018-11-04T01:38:48.399Z,39.33
2018-11-04T01:41:17.490Z,41.23
2018-11-04T01:43:46.623Z,41.10
2018-11-04T01:46:15.716Z,41.93
2018-11-04T01:48:44.826Z,41.00
2018-11-04T01:51:13.869Z,40.37
2018-11-04T01:53:42.935Z,40.60
2018-11-04T01:56:12.039Z,47.53
2018-11-04T01:58:41.072Z,42.93
2018-11-04T02:01:10.266Z,43.60
2018-11-04T02:03:39.306Z,45.67
2018-11-04T02:06:08.439Z,39.20
2018-11-04T02:08:37.522Z,43.20
2018-11-04T02:11:06.739Z,44.67
2018-11-04T02:13:35.813Z,51.13
2018-11-04T02:16:04.946Z,49.97
2018-11-04T02:18:34.056Z,44.57
2018-11-04T02:21:03.148Z,47.60
2018-11-04T02:23:32.206Z,43.43
2018-11-04T02:26:01.216Z,43.93
2018-11-04T02:28:30.310Z,46.03
2018-11-04T02:30:59.404Z,47.33
2018-11-04T02:33:28.457Z,44.37
2018-11-04T02:35:57.510Z,47.67
2018-11-04T02:38:26.608Z,43.87
2018-11-04T02:40:55.668Z,46.90
2018-11-04T02:43:24.796Z,51.97
2018-11-04T02:45:53.874Z,48.37
2018-11-04T02:48:22.938Z,47.23
2018-11-04T02:50:52.050Z,43.83
2018-11-04T02:53:21.127Z,50.17
2018-11-04T02:55:50.276Z,43.87
2018-11-04T02:58:19.398Z,41.90
2018-11-04T03:00:48.497Z,41.60
2018-11-04T03:03:17.654Z,39.33
2018-11-04T03:05:46.774Z,42.00
2018-11-04T03:08:15.824Z,39.63
2018-11-04T03:10:44.958Z,41.07
2018-11-04T03:13:14.124Z,38.33
2018-11-04T03:15:43.187Z,38.80
2018-11-04T03:18:12.260Z,41.83
2018-11-04T03:20:41.302Z,35.93
2018-11-04T03:23:10.466Z,44.30
2018-11-04T03:25:39.591Z,39.93
2018-11-04T03:28:09.624Z,42.73
2018-11-04T03:30:39.014Z,35.93
2018-11-04T03:33:08.895Z,39.67
2018-11-04T03:35:37.944Z,43.40
2018-11-04T03:38:07.641Z,37.27
2018-11-04T03:40:36.820Z,37.70
2018-11-04T03:43:05.981Z,38.90
2018-11-04T03:45:35.014Z,44.27
2018-11-04T03:48:04.196Z,43.37
2018-11-04T03:50:33.345Z,47.23
2018-11-04T03:53:04.462Z,39.97
2018-11-04T03:55:34.260Z,42.07
2018-11-04T03:58:03.718Z,45.80
2018-11-04T04:00:32.859Z,40.07
2018-11-04T04:03:01.995Z,41.03
2018-11-04T04:05:31.049Z,42.73
2018-11-04T04:08:00.078Z,37.80
2018-11-04T04:10:29.201Z,38.27
2018-11-04T04:12:58.265Z,38.40
2018-11-04T04:15:27.277Z,40.50
2018-11-04T04:17:56.390Z,36.47
2018-11-04T04:20:25.609Z,35.83
2018-11-04T04:22:54.782Z,40.50
2018-11-04T04:25:23.855Z,40.80
2018-11-04T04:27:52.978Z,35.70
2018-11-04T04:30:22.098Z,35.57
2018-11-04T04:32:51.150Z,33.60
2018-11-04T04:35:20.344Z,36.63
2018-11-04T04:37:49.392Z,39.40
2018-11-04T04:40:18.430Z,42.53
2018-11-04T04:42:47.579Z,39.63
2018-11-04T04:45:16.706Z,36.87
2018-11-04T04:47:45.787Z,42.37
2018-11-04T04:50:14.967Z,37.43
2018-11-04T04:52:44.052Z,38.53
2018-11-04T04:55:13.238Z,42.37
2018-11-04T04:57:42.334Z,43.07
2018-11-04T05:00:11.464Z,37.63
2018-11-04T05:02:40.546Z,43.20
2018-11-04T05:05:09.735Z,39.47
2018-11-04T05:07:38.742Z,36.50
2018-11-04T05:10:07.762Z,36.00
2018-11-04T05:12:36.853Z,36.30
2018-11-04T05:15:07.695Z,35.83
2018-11-04T05:17:36.890Z,36.70
2018-11-04T05:20:06.269Z,42.17
2018-11-04T05:22:35.344Z,37.17
2018-11-04T05:25:05.025Z,35.90
2018-11-04T05:27:34.156Z,35.03
2018-11-04T05:30:03.303Z,35.97
2018-11-04T05:32:32.426Z,40.67
2018-11-04T05:35:01.526Z,37.07
2018-11-04T05:37:30.580Z,34.67
2018-11-04T05:39:59.697Z,40.77
2018-11-04T05:42:28.857Z,39.10
2018-11-04T05:44:58.001Z,40.87
2018-11-04T05:47:27.087Z,36.00
2018-11-04T05:49:56.116Z,40.67
2018-11-04T05:52:25.217Z,40.40
2018-11-04T05:54:54.293Z,35.43
2018-11-04T05:57:23.456Z,38.70
2018-11-04T05:59:52.604Z,36.37
2018-11-04T06:02:22.435Z,36.87
2018-11-04T06:04:51.469Z,38.73
2018-11-04T06:07:20.623Z,34.93
2018-11-04T06:09:49.721Z,39.53
2018-11-04T06:12:18.822Z,38.73
2018-11-04T06:14:47.954Z,36.57
2018-11-04T06:17:16.988Z,39.00
2018-11-04T06:19:46.126Z,35.87
2018-11-04T06:22:15.162Z,37.00
2018-11-04T06:24:44.230Z,32.60
2018-11-04T06:27:13.274Z,30.07
2018-11-04T06:29:42.353Z,38.23
2018-11-04T06:32:11.467Z,37.87
2018-11-04T06:34:40.666Z,35.50
2018-11-04T06:37:16.448Z,35.03
2018-11-04T06:39:45.488Z,35.33
2018-11-04T06:42:14.663Z,36.30
2018-11-04T06:44:43.733Z,37.13
2018-11-04T06:47:12.954Z,34.73
2018-11-04T06:49:42.068Z,34.83
2018-11-04T06:52:11.190Z,32.93
2018-11-04T06:54:40.315Z,35.87
2018-11-04T06:57:09.468Z,37.20
2018-11-04T06:59:38.521Z,37.20
2018-11-04T07:02:07.694Z,38.03
2018-11-04T07:04:36.828Z,39.33
2018-11-04T07:07:06.056Z,37.63
2018-11-04T07:09:35.238Z,38.33
2018-11-04T07:12:04.462Z,40.07
2018-11-04T07:14:33.710Z,42.27
2018-11-04T07:17:02.906Z,39.80
2018-11-04T07:19:32.038Z,38.53
2018-11-04T07:22:01.145Z,37.63
2018-11-04T07:24:30.242Z,45.57
2018-11-04T07:26:59.350Z,44.07
2018-11-04T07:29:28.611Z,37.27
2018-11-04T07:31:57.661Z,46.90
2018-11-04T07:34:26.877Z,46.47
2018-11-04T07:36:56.120Z,48.07
2018-11-04T07:39:25.631Z,43.47
2018-11-04T07:41:54.912Z,47.77
2018-11-04T07:44:24.203Z,45.63
2018-11-04T07:46:53.316Z,47.60
2018-11-04T07:49:22.466Z,47.63
2018-11-04T07:51:51.557Z,46.43
2018-11-04T07:54:20.598Z,40.97
2018-11-04T07:56:49.691Z,40.10
2018-11-04T07:59:18.782Z,44.37
2018-11-04T08:01:47.905Z,41.93
2018-11-04T08:04:17.107Z,42.87
2018-11-04T08:06:46.220Z,45.07
2018-11-04T08:09:15.303Z,43.43
2018-11-04T08:11:44.386Z,37.67
2018-11-04T08:14:13.479Z,37.20
2018-11-04T08:16:42.588Z,39.90
2018-11-04T08:19:11.762Z,39.20
2018-11-04T08:21:40.935Z,36.70
2018-11-04T08:24:10.067Z,44.27
2018-11-04T08:26:39.162Z,40.07
2018-11-04T08:29:08.276Z,41.07
2018-11-04T08:31:37.409Z,43.47
2018-11-04T08:34:06.620Z,38.13
2018-11-04T08:36:36.009Z,36.90
2018-11-04T08:39:06.897Z,40.80
2018-11-04T08:41:36.318Z,35.20
2018-11-04T08:44:05.686Z,38.07
2018-11-04T08:46:35.083Z,38.30
2018-11-04T08:49:04.674Z,44.37
2018-11-04T08:51:34.064Z,41.10
2018-11-04T08:54:03.074Z,42.30
2018-11-04T08:56:32.095Z,43.07
2018-11-04T08:59:01.092Z,40.07
2018-11-04T09:01:30.121Z,41.77
2018-11-04T09:03:59.222Z,36.43
2018-11-04T09:06:28.336Z,40.50
2018-11-04T09:08:57.456Z,38.43
2018-11-04T09:11:26.555Z,39.50
2018-11-04T09:13:56.068Z,41.63
2018-11-04T09:16:25.684Z,36.90
2018-11-04T09:18:57.049Z,36.47
2018-11-04T09:21:26.709Z,39.07
2018-11-04T09:23:56.425Z,39.00
2018-11-04T09:26:25.962Z,38.73
2018-11-04T09:28:55.644Z,35.23
2018-11-04T09:31:25.089Z,40.87
2018-11-04T09:33:54.530Z,36.80
2018-11-04T09:36:23.731Z,40.13
2018-11-04T09:38:52.699Z,38.73
2018-11-04T09:41:21.865Z,34.70
2018-11-04T09:43:50.924Z,38.20
2018-11-04T09:46:19.943Z,35.27
2018-11-04T09:48:49.067Z,34.50
2018-11-04T09:51:18.107Z,34.73
2018-11-04T09:53:47.959Z,33.90
2018-11-04T09:56:17.165Z,35.13
2018-11-04T09:58:46.253Z,32.10
2018-11-04T10:01:15.367Z,36.83
2018-11-04T10:03:44.479Z,35.77
2018-11-04T10:06:13.589Z,34.43
2018-11-04T10:08:42.676Z,35.13
2018-11-04T10:11:11.855Z,32.43
2018-11-04T10:13:41.641Z,34.90
2018-11-04T10:16:10.967Z,31.50
2018-11-04T10:18:40.061Z,31.13
2018-11-04T10:21:09.559Z,31.77
2018-11-04T10:23:38.433Z,29.93
2018-11-04T10:26:07.527Z,32.30
2018-11-04T10:28:36.569Z,29.03
2018-11-04T10:31:05.611Z,30.33
2018-11-04T10:33:34.682Z,26.90
2018-11-04T10:36:05.095Z,31.17
2018-11-04T10:38:34.205Z,31.67
2018-11-04T10:41:03.289Z,29.57
2018-11-04T10:43:32.361Z,30.87
2018-11-04T10:46:01.597Z,31.73
2018-11-04T10:48:30.674Z,31.30
2018-11-04T10:50:59.785Z,28.67
2018-11-04T10:53:28.776Z,26.47
2018-11-04T10:55:58.015Z,28.43
2018-11-04T10:58:27.034Z,24.57
2018-11-04T11:01:01.786Z,30.67
2018-11-04T11:03:31.113Z,27.90
2018-11-04T11:06:00.409Z,28.83
2018-11-04T11:08:29.574Z,28.87
2018-11-04T11:10:58.911Z,27.60
2018-11-04T11:13:28.346Z,26.97
2018-11-04T11:15:57.439Z,28.33
2018-11-04T11:18:27.043Z,29.07
2018-11-04T11:20:56.110Z,25.33
2018-11-04T11:23:25.187Z,26.03
2018-11-04T11:25:54.236Z,28.07
2018-11-04T11:28:23.272Z,26.80
2018-11-04T11:30:52.496Z,27.90
2018-11-04T11:33:21.661Z,25.73
2018-11-04T11:35:50.743Z,25.23
2018-11-04T11:38:19.824Z,26.57
2018-11-04T11:40:48.942Z,25.17
2018-11-04T11:43:18.124Z,24.07
2018-11-04T11:45:47.293Z,25.30
2018-11-04T11:48:16.509Z,27.47
2018-11-04T11:50:46.337Z,26.40
2018-11-04T11:53:15.430Z,26.43
2018-11-04T11:55:44.581Z,23.50
2018-11-04T11:58:13.726Z,24.17
2018-11-04T12:00:42.871Z,25.63
2018-11-04T12:03:12.047Z,24.33
2018-11-04T12:05:41.112Z,24.17
2018-11-04T12:08:10.204Z,23.93
2018-11-04T12:10:39.317Z,25.27
2018-11-04T12:13:08.401Z,25.40
2018-11-04T12:15:37.458Z,25.10
2018-11-04T12:18:06.704Z,25.50
2018-11-04T12:20:35.827Z,27.27
2018-11-04T12:23:05.000Z,28.17
2018-11-04T12:25:34.502Z,23.33
2018-11-04T12:28:03.732Z,22.60
2018-11-04T12:30:32.817Z,23.53
2018-11-04T12:33:01.962Z,21.97
2018-11-04T12:35:31.232Z,21.90
2018-11-04T12:38:00.435Z,24.37
2018-11-04T12:40:29.547Z,24.73
2018-11-04T12:42:58.676Z,23.37
2018-11-04T12:45:27.800Z,23.03
2018-11-04T12:48:01.107Z,20.73
2018-11-04T12:50:31.304Z,23.03
2018-11-04T12:53:00.398Z,24.50
2018-11-04T12:55:29.586Z,24.53
2018-11-04T12:57:58.750Z,23.53
2018-11-04T13:00:27.957Z,25.10
2018-11-04T13:02:57.243Z,23.77
2018-11-04T13:05:26.386Z,24.27
2018-11-04T13:07:55.657Z,24.97
2018-11-04T13:10:24.717Z,22.10
2018-11-04T13:12:53.761Z,22.90
2018-11-04T13:15:22.924Z,23.27
2018-11-04T13:17:51.967Z,22.47
2018-11-04T13:23:10.973Z,22.13
2018-11-04T13:25:41.357Z,23.07
2018-11-04T13:28:10.540Z,22.80
2018-11-04T13:30:40.051Z,23.13
2018-11-04T13:33:09.433Z,24.90
2018-11-04T13:35:39.181Z,23.50
2018-11-04T13:38:08.733Z,25.10
2018-11-04T13:40:37.980Z,22.37
2018-11-04T13:43:07.115Z,24.70
2018-11-04T13:45:36.264Z,20.23
2018-11-04T13:48:05.775Z,24.50
2018-11-04T13:50:35.762Z,22.30
2018-11-04T13:53:04.951Z,22.77
2018-11-04T13:55:34.011Z,22.10
2018-11-04T13:58:03.140Z,20.87
2018-11-04T14:00:32.308Z,20.43
2018-11-04T14:03:01.404Z,22.43
2018-11-04T14:05:31.429Z,22.07
2018-11-04T14:08:00.481Z,23.40
2018-11-04T14:10:29.650Z,21.60
2018-11-04T14:12:58.951Z,21.00
2018-11-04T14:15:28.315Z,22.47
2018-11-04T14:17:59.980Z,23.80
2018-11-04T14:20:29.102Z,20.83
2018-11-04T14:22:58.299Z,21.43
2018-11-04T14:25:27.453Z,21.30
2018-11-04T14:27:56.582Z,23.03
2018-11-04T14:30:25.639Z,23.63
2018-11-04T14:32:54.778Z,21.77
2018-11-04T14:35:25.007Z,22.53
2018-11-04T14:37:55.207Z,21.87
2018-11-04T14:40:24.387Z,21.00
2018-11-04T14:42:53.530Z,20.17
2018-11-04T14:45:22.761Z,20.97
2018-11-04T14:47:52.626Z,20.90
2018-11-04T14:50:21.685Z,20.53
2018-11-04T14:52:50.724Z,20.87
2018-11-04T14:55:19.733Z,21.40
2018-11-04T14:57:48.782Z,20.97
2018-11-04T15:00:18.784Z,23.13
2018-11-04T15:02:47.867Z,22.20
2018-11-04T15:05:16.990Z,20.60
2018-11-04T15:07:46.065Z,20.50
2018-11-04T15:10:15.722Z,20.17
2018-11-04T15:12:44.944Z,20.90
2018-11-04T15:15:16.259Z,20.77
2018-11-04T15:17:45.325Z,20.57
2018-11-04T15:20:14.484Z,22.33
2018-11-04T15:22:47.458Z,23.07
2018-11-04T15:25:17.747Z,21.97
2018-11-04T15:27:48.278Z,21.77
2018-11-04T15:30:17.654Z,20.77
2018-11-04T15:32:46.843Z,21.70
2018-11-04T15:35:16.693Z,21.00
2018-11-04T15:37:45.926Z,20.77
2018-11-04T15:40:15.892Z,20.60
2018-11-04T15:42:45.001Z,23.07
2018-11-04T15:45:14.983Z,23.20
2018-11-04T15:47:44.204Z,23.23
2018-11-04T15:50:14.777Z,21.70
2018-11-04T15:52:43.807Z,23.53
2018-11-04T15:55:12.861Z,24.83
2018-11-04T15:57:42.038Z,24.73
2018-11-04T16:00:12.955Z,25.80
2018-11-04T16:02:42.100Z,25.53
2018-11-04T16:05:11.425Z,28.87
2018-11-04T16:07:40.506Z,26.67
2018-11-04T16:10:11.035Z,29.47
2018-11-04T16:12:40.190Z,27.60
2018-11-04T16:15:12.064Z,27.83
2018-11-04T16:17:41.577Z,30.43
2018-11-04T16:20:11.959Z,29.37
2018-11-04T16:22:41.716Z,29.63
2018-11-04T16:25:11.413Z,29.27
2018-11-04T16:27:41.698Z,29.23
2018-11-04T16:30:12.482Z,30.47
2018-11-04T16:32:41.654Z,31.50
2018-11-04T16:35:11.922Z,30.33
2018-11-04T16:37:41.934Z,33.20
2018-11-04T16:40:11.327Z,31.10
2018-11-04T16:42:40.530Z,31.07
2018-11-04T16:45:12.891Z,31.17
2018-11-04T16:47:42.071Z,34.97
2018-11-04T16:50:13.434Z,34.40
2018-11-04T16:52:43.734Z,33.47
2018-11-04T16:55:13.286Z,34.67
2018-11-04T16:57:42.720Z,35.00
2018-11-04T17:00:12.157Z,33.93
2018-11-04T17:02:41.261Z,34.90
2018-11-04T17:05:11.514Z,35.90
2018-11-04T17:07:40.873Z,35.97
2018-11-04T17:10:10.282Z,36.10
2018-11-04T17:12:39.292Z,37.47
2018-11-04T17:15:11.610Z,40.63
2018-11-04T17:17:40.716Z,35.43
2018-11-04T17:20:14.671Z,38.57
2018-11-04T17:22:44.185Z,36.03
2018-11-04T17:25:13.262Z,38.87
2018-11-04T17:27:42.591Z,36.73
2018-11-04T17:30:14.372Z,38.00
2018-11-04T17:32:43.836Z,38.07
2018-11-04T17:35:13.879Z,39.00
2018-11-04T17:37:43.928Z,37.10
2018-11-04T17:40:13.920Z,40.03
2018-11-04T17:42:43.059Z,36.00
2018-11-04T17:45:13.427Z,37.23
2018-11-04T17:47:42.541Z,36.70
2018-11-04T17:50:14.083Z,40.47
2018-11-04T17:52:43.563Z,40.83
2018-11-04T17:55:12.591Z,38.47
2018-11-04T17:57:41.679Z,37.03
2018-11-04T18:00:11.828Z,37.87
2018-11-04T18:02:41.817Z,38.57
2018-11-04T18:05:11.461Z,41.43
2018-11-04T18:07:41.249Z,36.93
2018-11-04T18:10:11.230Z,37.93
2018-11-04T18:12:40.406Z,38.80
2018-11-04T18:15:10.372Z,38.73
2018-11-04T18:17:40.287Z,40.83
2018-11-04T18:20:10.683Z,42.40
2018-11-04T18:22:39.842Z,39.97
2018-11-04T18:25:10.390Z,37.80
2018-11-04T18:27:39.526Z,36.23
2018-11-04T18:30:12.512Z,37.00
2018-11-04T18:32:42.314Z,38.23
2018-11-04T18:35:11.648Z,40.17
2018-11-04T18:37:40.922Z,40.40
2018-11-04T18:40:14.161Z,39.13
2018-11-04T18:42:43.858Z,38.27
2018-11-04T18:45:14.176Z,39.33
2018-11-04T18:47:43.793Z,37.30
2018-11-04T18:50:13.769Z,37.27
2018-11-04T18:52:43.093Z,37.93
2018-11-04T18:55:12.499Z,39.97
2018-11-04T18:57:42.466Z,39.53
2018-11-04T19:00:14.505Z,39.53
2018-11-04T19:02:43.981Z,39.50
2018-11-04T19:05:13.193Z,38.37
2018-11-04T19:07:42.433Z,42.67
2018-11-04T19:10:13.301Z,40.17
2018-11-04T19:12:42.738Z,40.23
2018-11-04T19:15:11.965Z,40.63
2018-11-04T19:17:41.320Z,40.43
2018-11-04T19:20:12.484Z,40.37
2018-11-04T19:22:41.746Z,39.80
2018-11-04T19:25:12.008Z,41.70
2018-11-04T19:27:41.106Z,42.27
2018-11-04T19:30:13.084Z,39.37
2018-11-04T19:32:42.463Z,40.03
2018-11-04T19:35:12.301Z,41.63
2018-11-04T19:37:41.807Z,39.67
2018-11-04T19:40:12.771Z,40.17
2018-11-04T19:42:41.909Z,42.40
2018-11-04T19:45:10.954Z,43.03
2018-11-04T19:47:40.111Z,45.53
2018-11-04T19:50:11.305Z,41.07
2018-11-04T19:52:40.667Z,42.43
2018-11-04T19:55:10.527Z,40.93
2018-11-04T19:57:39.744Z,40.83
2018-11-04T20:00:11.292Z,42.37
2018-11-04T20:02:40.421Z,41.13
2018-11-04T20:05:10.844Z,41.73
2018-11-04T20:07:39.957Z,46.13
2018-11-04T20:10:13.934Z,41.47
2018-11-04T20:12:48.624Z,40.57
2018-11-04T20:15:17.740Z,42.20
2018-11-04T20:17:47.666Z,44.77
2018-11-04T20:20:19.522Z,41.87
2018-11-04T20:22:48.509Z,42.27
2018-11-04T20:25:23.147Z,45.03
2018-11-04T20:27:52.216Z,41.80
2018-11-04T20:30:21.317Z,43.80
2018-11-04T20:32:55.734Z,46.67
2018-11-04T20:35:24.849Z,47.40
2018-11-04T20:37:53.935Z,45.13
2018-11-04T20:40:29.219Z,47.33
2018-11-04T20:42:58.254Z,45.50
2018-11-04T20:45:27.353Z,45.53
2018-11-04T20:49:00.177Z,49.57
2018-11-04T20:51:29.262Z,46.50
2018-11-04T20:53:58.391Z,47.77
2018-11-04T20:56:32.993Z,45.80
2018-11-04T20:59:02.084Z,46.47
2018-11-04T21:01:31.210Z,49.57
2018-11-04T21:04:00.358Z,50.47
2018-11-04T21:06:29.324Z,50.93
2018-11-04T21:08:59.267Z,51.30
2018-11-04T21:11:28.415Z,54.97
2018-11-04T21:13:57.614Z,53.20
2018-11-04T21:16:26.767Z,55.53
2018-11-04T21:18:55.734Z,51.80
2018-11-04T21:21:24.825Z,49.33
2018-11-04T21:23:53.904Z,49.97
2018-11-04T21:26:22.957Z,52.87
2018-11-04T21:28:52.166Z,54.37
2018-11-04T21:31:21.278Z,53.27
2018-11-04T21:33:50.317Z,56.20
2018-11-04T21:36:23.383Z,50.10
2018-11-04T21:38:52.432Z,51.80
2018-11-04T21:41:21.514Z,56.57
2018-11-04T21:43:50.923Z,50.37
2018-11-04T21:46:19.633Z,53.57
2018-11-04T21:48:48.661Z,56.43
2018-11-04T21:51:17.896Z,55.23
2018-11-04T21:53:46.801Z,49.60
2018-11-04T21:56:15.970Z,51.50
2018-11-04T21:58:44.929Z,53.73
2018-11-04T22:01:13.948Z,57.87
2018-11-04T22:03:43.180Z,55.57
2018-11-04T22:06:12.152Z,63.90
2018-11-04T22:08:41.311Z,56.40
2018-11-04T22:11:10.464Z,54.17
2018-11-04T22:13:39.655Z,54.87
2018-11-04T22:16:08.930Z,57.60
2018-11-04T22:18:37.975Z,52.20
2018-11-04T22:21:07.049Z,52.20
2018-11-04T22:23:36.669Z,43.83
2018-11-04T22:26:05.834Z,36.93
2018-11-04T22:28:34.879Z,44.87
2018-11-04T22:31:03.900Z,45.90
2018-11-04T22:33:32.910Z,46.97
2018-11-04T22:36:01.979Z,41.27
2018-11-04T22:38:30.999Z,37.37
2018-11-04T22:41:00.039Z,43.63
2018-11-04T22:43:29.051Z,47.43
2018-11-04T22:45:58.049Z,48.90
2018-11-04T22:48:27.093Z,47.53
2018-11-04T22:50:56.104Z,43.47
2018-11-04T22:53:25.203Z,40.50
2018-11-04T22:55:54.414Z,41.40
2018-11-04T22:58:23.431Z,41.87
2018-11-04T23:00:58.305Z,39.37
2018-11-04T23:03:27.408Z,46.47
2018-11-04T23:05:56.825Z,43.73
2018-11-04T23:08:25.884Z,45.10
2018-11-04T23:10:54.981Z,43.20
2018-11-04T23:13:24.029Z,44.27
2018-11-04T23:15:53.093Z,43.97
2018-11-04T23:18:22.224Z,44.47
2018-11-04T23:20:51.287Z,46.73
2018-11-04T23:23:20.393Z,42.87
2018-11-04T23:25:49.399Z,47.87
2018-11-04T23:28:18.431Z,52.33
2018-11-04T23:30:47.426Z,49.83
2018-11-04T23:33:16.518Z,46.73
2018-11-04T23:35:45.573Z,53.67
2018-11-04T23:38:14.661Z,52.57
2018-11-04T23:40:43.684Z,49.47
2018-11-04T23:43:12.777Z,50.00
2018-11-04T23:45:41.839Z,51.00
2018-11-04T23:48:10.914Z,50.70
2018-11-04T23:50:39.968Z,56.63
2018-11-04T23:53:09.493Z,56.43
2018-11-04T23:55:38.577Z,51.93
2018-11-04T23:58:09.605Z,53.83
